Time;durP1;ratioP1;P1;durP2;ratioP2;P2;SDS_P1;SDS_P2;PMS_P1;PMS_P2;Temp;Humidity;BMP_temperature;BMP_pressure;BME280_temperature;BME280_humidity;BME280_pressure;Samples;Min_cycle;Max_cycle;Signal;HPM_P1;HPM_P2
2022/10/28 00:02:23;;;;;;;10.27;9.77;;;;;;;10.30;80.44;94033.38;5070257;28;20344;-67
2022/10/28 00:04:49;;;;;;;10.07;9.57;;;;;;;10.28;80.40;94038.81;5070693;28;20245;-67
2022/10/28 00:07:14;;;;;;;10.43;9.83;;;;;;;10.16;81.18;94025.09;5071369;28;20237;-68
2022/10/28 00:09:39;;;;;;;10.27;9.67;;;;;;;10.26;81.27;94037.47;5070356;28;20225;-68
2022/10/28 00:12:05;;;;;;;9.80;9.10;;;;;;;10.26;80.64;94037.47;5070630;28;20195;-67
2022/10/28 00:14:31;;;;;;;10.23;9.63;;;;;;;10.18;81.17;94036.06;5069282;28;20248;-67
2022/10/28 00:16:56;;;;;;;9.00;8.60;;;;;;;10.28;80.63;94033.59;5070997;28;20198;-68
2022/10/28 00:19:21;;;;;;;9.60;9.13;;;;;;;10.29;80.74;94032.56;5070516;28;20241;-67
2022/10/28 00:21:47;;;;;;;9.00;8.60;;;;;;;10.24;81.67;94032.50;5070925;28;20210;-68
2022/10/28 00:24:13;;;;;;;9.60;9.07;;;;;;;10.17;82.06;94023.25;5070066;28;20222;-67
2022/10/28 00:26:44;;;;;;;11.37;10.67;;;;;;;10.22;82.52;94026.75;5070242;28;20197;-68
2022/10/28 00:29:16;;;;;;;9.90;9.30;;;;;;;10.19;82.42;94022.00;5076486;28;20229;-68
2022/10/28 00:31:41;;;;;;;9.57;9.00;;;;;;;10.24;82.20;94027.28;5082217;28;20182;-68
2022/10/28 00:34:11;;;;;;;11.03;10.17;;;;;;;10.11;81.54;94019.00;5073296;28;20777;-67
2022/10/28 00:36:38;;;;;;;9.77;9.07;;;;;;;10.10;82.64;94033.09;5070886;28;20184;-67
2022/10/28 00:39:14;;;;;;;10.10;9.50;;;;;;;10.07;82.67;94023.91;5074517;28;20229;-69
2022/10/28 00:41:45;;;;;;;10.23;9.47;;;;;;;9.97;83.68;94026.38;5080315;28;20201;-69
2022/10/28 00:44:38;;;;;;;9.57;9.10;;;;;;;9.96;83.76;94021.38;5070779;28;20217;-68
2022/10/28 00:47:16;;;;;;;9.90;9.33;;;;;;;9.94;82.87;94019.03;5070030;28;20186;-68
2022/10/28 00:49:45;;;;;;;10.63;9.93;;;;;;;9.90;83.01;94004.84;5087437;28;20300;-67
2022/10/28 00:52:21;;;;;;;10.03;9.47;;;;;;;9.96;83.12;94016.94;5090581;28;20177;-68
2022/10/28 00:54:48;;;;;;;11.73;10.63;;;;;;;9.83;84.14;94014.69;5088603;28;20208;-67
2022/10/28 00:57:20;;;;;;;11.20;10.50;;;;;;;9.86;84.47;94018.63;5089993;28;20165;-68
2022/10/28 00:59:50;;;;;;;10.80;10.03;;;;;;;9.79;84.07;94016.97;5071727;28;20238;-67
2022/10/28 01:02:16;;;;;;;11.00;10.30;;;;;;;9.89;84.08;94028.56;5070307;28;20309;-68
2022/10/28 01:04:43;;;;;;;11.10;10.30;;;;;;;9.77;84.00;94018.25;5068854;28;20283;-68
2022/10/28 01:07:08;;;;;;;10.90;10.20;;;;;;;9.59;84.64;94018.47;5072319;28;20229;-68
2022/10/28 01:09:34;;;;;;;11.43;10.70;;;;;;;9.57;84.84;94020.56;5069781;28;20226;-67
2022/10/28 01:12:05;;;;;;;11.13;10.40;;;;;;;9.51;85.50;94022.28;5070022;28;20207;-67
2022/10/28 01:14:30;;;;;;;11.00;10.30;;;;;;;9.52;85.86;94028.28;5067978;28;20214;-67
2022/10/28 01:17:16;;;;;;;11.00;10.20;;;;;;;9.60;85.22;94020.09;5069193;28;20183;-68
2022/10/28 01:20:19;;;;;;;11.50;10.43;;;;;;;9.52;85.81;94023.06;5069233;28;20268;-67
2022/10/28 01:22:49;;;;;;;10.60;9.80;;;;;;;9.55;85.98;94014.78;5069336;28;20190;-67
2022/10/28 01:25:35;;;;;;;11.30;10.60;;;;;;;9.42;86.43;94017.69;5069863;28;20178;-69
2022/10/28 01:28:42;;;;;;;11.33;10.63;;;;;;;9.48;85.95;94020.16;5067311;28;20238;-68
2022/10/28 01:31:26;;;;;;;10.50;9.90;;;;;;;9.51;85.93;94021.47;5068276;28;20671;-69
2022/10/28 01:34:03;;;;;;;10.50;9.90;;;;;;;9.40;85.72;94019.78;5078773;28;20233;-67
2022/10/28 01:36:31;;;;;;;10.87;10.07;;;;;;;9.30;85.94;94017.78;5089948;28;20192;-68
2022/10/28 01:39:24;;;;;;;10.27;9.60;;;;;;;9.28;86.02;94011.22;5083067;28;20236;-67
2022/10/28 01:41:59;;;;;;;10.80;10.00;;;;;;;9.30;86.36;94017.78;5077438;28;20201;-68
2022/10/28 01:44:36;;;;;;;11.13;10.33;;;;;;;9.28;86.63;94025.03;5070792;28;20217;-68
2022/10/28 01:47:38;;;;;;;11.27;10.57;;;;;;;9.47;85.63;94015.97;5068133;28;20192;-67
2022/10/28 01:50:08;;;;;;;10.80;10.17;;;;;;;9.24;85.51;93999.69;5068596;28;20292;-67
2022/10/28 01:52:36;;;;;;;9.83;9.33;;;;;;;9.32;85.43;94020.91;5068782;28;20178;-68
2022/10/28 01:55:21;;;;;;;10.53;9.93;;;;;;;9.45;84.48;94014.63;5069021;28;20222;-67
2022/10/28 01:57:50;;;;;;;10.40;9.90;;;;;;;9.29;85.69;94016.19;5067958;28;20225;-68
2022/10/28 02:00:16;;;;;;;9.67;9.17;;;;;;;9.28;85.57;94024.25;5067722;28;20707;-67
2022/10/28 02:02:42;;;;;;;10.67;10.03;;;;;;;9.31;84.99;94023.75;5068815;28;20239;-68
2022/10/28 02:05:37;;;;;;;9.80;9.40;;;;;;;9.26;84.74;94032.28;5080274;28;21022;-68
2022/10/28 02:08:18;;;;;;;9.40;9.00;;;;;;;9.42;84.86;94030.72;5074804;28;20288;-68
2022/10/28 02:10:59;;;;;;;10.53;9.93;;;;;;;9.25;85.55;94029.91;5070331;28;20200;-68
2022/10/28 02:13:42;;;;;;;10.87;10.20;;;;;;;9.13;86.23;94030.00;5068255;28;20232;-68
2022/10/28 02:16:25;;;;;;;10.00;9.50;;;;;;;9.39;85.35;94033.81;5068680;28;20193;-68
2022/10/28 02:19:22;;;;;;;10.77;10.03;;;;;;;9.16;85.52;94026.94;5068362;28;20232;-67
2022/10/28 02:22:21;;;;;;;10.13;9.53;;;;;;;9.16;85.99;94021.72;5068083;28;20193;-68
2022/10/28 02:24:46;;;;;;;9.73;9.23;;;;;;;9.06;86.27;94021.53;5067327;28;20251;-68
2022/10/28 02:27:33;;;;;;;9.80;9.30;;;;;;;9.01;87.27;94018.81;5067986;28;20198;-67
2022/10/28 02:30:05;;;;;;;10.40;9.80;;;;;;;9.05;86.42;94016.56;5068255;28;20235;-68
2022/10/28 02:32:37;;;;;;;9.60;9.20;;;;;;;8.94;87.52;94020.81;5068444;28;20193;-67
2022/10/28 02:35:09;;;;;;;10.83;10.23;;;;;;;9.03;86.83;94018.59;5088114;28;20213;-68
2022/10/28 02:37:38;;;;;;;9.83;9.33;;;;;;;8.86;86.56;94021.16;5088258;28;20184;-68
2022/10/28 02:40:11;;;;;;;9.57;9.07;;;;;;;8.90;87.18;94029.31;5088259;28;20316;-69
2022/10/28 02:42:43;;;;;;;10.33;9.43;;;;;;;8.93;87.44;94021.03;5088510;28;20185;-68
2022/10/28 02:45:14;;;;;;;9.90;9.10;;;;;;;8.86;86.93;94022.97;5087922;28;20212;-67
2022/10/28 02:47:45;;;;;;;10.37;9.83;;;;;;;8.73;88.00;94025.88;5088290;28;20203;-71
2022/10/28 02:50:15;;;;;;;10.00;9.30;;;;;;;8.88;87.32;94034.75;5076986;28;20200;-67
2022/10/28 02:52:45;;;;;;;9.67;8.97;;;;;;;8.84;87.26;94038.06;5078921;28;20189;-68
2022/10/28 02:55:10;;;;;;;10.50;9.90;;;;;;;8.88;87.35;94028.75;5066492;28;20208;-67
2022/10/28 02:57:43;;;;;;;10.77;10.07;;;;;;;8.95;86.43;94029.41;5069432;28;20222;-68
2022/10/28 03:00:14;;;;;;;11.07;10.23;;;;;;;8.88;86.96;94033.97;5070903;28;20252;-67
2022/10/28 03:02:39;;;;;;;10.43;9.90;;;;;;;8.89;86.68;94032.94;5071634;28;20188;-68
2022/10/28 03:05:06;;;;;;;11.33;10.67;;;;;;;8.77;87.95;94030.38;5071565;28;20201;-67
2022/10/28 03:07:31;;;;;;;10.87;9.97;;;;;;;8.74;88.06;94035.25;5072761;28;20185;-67
2022/10/28 03:09:56;;;;;;;10.13;9.63;;;;;;;8.75;88.40;94023.81;5079232;28;20237;-67
2022/10/28 03:12:22;;;;;;;11.00;10.40;;;;;;;8.73;88.55;94015.47;5081879;28;20208;-69
2022/10/28 03:14:47;;;;;;;11.27;10.57;;;;;;;8.63;88.67;94021.25;5072567;28;20220;-68
2022/10/28 03:17:12;;;;;;;11.47;10.60;;;;;;;8.59;89.64;94021.97;5075199;28;20318;-68
2022/10/28 03:19:38;;;;;;;12.37;11.57;;;;;;;8.51;90.40;94027.53;5071514;28;20225;-68
2022/10/28 03:22:03;;;;;;;11.47;10.67;;;;;;;8.56;90.79;94025.81;5071575;28;20198;-68
2022/10/28 03:24:29;;;;;;;13.77;12.53;;;;;;;8.57;89.74;94026.59;5085434;28;20777;-68
2022/10/28 03:26:54;;;;;;;12.67;11.80;;;;;;;8.55;89.77;94026.03;5091891;28;20185;-68
2022/10/28 03:29:20;;;;;;;13.57;12.67;;;;;;;8.63;88.91;94023.06;5077910;28;20232;-69
2022/10/28 03:31:45;;;;;;;12.63;11.83;;;;;;;8.54;89.18;94011.44;5072176;28;20191;-68
2022/10/28 03:34:10;;;;;;;11.83;11.13;;;;;;;8.57;89.88;94024.00;5071303;28;20221;-68
2022/10/28 03:36:36;;;;;;;11.80;11.20;;;;;;;8.51;89.63;94024.94;5071493;28;20185;-68
2022/10/28 03:39:01;;;;;;;10.87;10.17;;;;;;;8.44;89.58;94016.44;5071530;28;20335;-70
2022/10/28 03:41:27;;;;;;;11.30;10.60;;;;;;;8.45;90.37;94031.06;5070779;28;20195;-69
2022/10/28 03:43:52;;;;;;;10.30;9.53;;;;;;;8.39;90.63;94024.19;5073356;28;20236;-68
2022/10/28 03:46:17;;;;;;;10.80;10.10;;;;;;;8.53;89.99;94035.91;5071905;28;20196;-69
2022/10/28 03:48:43;;;;;;;11.43;10.77;;;;;;;8.41;88.96;94019.50;5068680;28;21009;-69
2022/10/28 03:51:08;;;;;;;10.60;9.90;;;;;;;8.30;90.63;94033.34;5071161;28;20184;-69
2022/10/28 03:53:33;;;;;;;12.27;11.37;;;;;;;8.31;90.40;94027.94;5069272;28;20258;-67
2022/10/28 03:56:00;;;;;;;12.50;11.37;;;;;;;8.27;89.78;94018.97;5070164;28;20208;-67
2022/10/28 03:58:26;;;;;;;12.87;11.93;;;;;;;8.44;89.71;94032.06;5069936;28;20771;-66
2022/10/28 04:00:52;;;;;;;14.27;13.07;;;;;;;8.35;90.05;94021.22;5069560;28;20189;-69
2022/10/28 04:03:19;;;;;;;14.97;13.87;;;;;;;8.38;90.04;94025.19;5068404;28;20221;-69
2022/10/28 04:05:48;;;;;;;12.23;11.23;;;;;;;8.29;90.61;94021.34;5070759;28;20193;-69
2022/10/28 04:08:15;;;;;;;13.50;12.60;;;;;;;8.09;91.36;94011.31;5069257;28;20233;-70
2022/10/28 04:10:42;;;;;;;11.30;10.50;;;;;;;8.18;91.39;94023.75;5068849;28;20253;-70
2022/10/28 04:13:08;;;;;;;13.67;12.57;;;;;;;8.29;91.18;94027.38;5069864;28;20221;-69
2022/10/28 04:15:34;;;;;;;12.20;11.40;;;;;;;8.30;91.15;94028.13;5093127;28;20188;-70
2022/10/28 04:17:59;;;;;;;10.57;9.87;;;;;;;8.18;90.67;94012.53;5089801;28;20227;-69
2022/10/28 04:20:25;;;;;;;11.30;10.47;;;;;;;8.24;90.80;94011.63;5089355;28;20237;-71
2022/10/28 04:22:51;;;;;;;12.40;11.33;;;;;;;8.35;90.79;94039.44;5088967;28;20249;-70
2022/10/28 04:25:16;;;;;;;12.67;11.77;;;;;;;8.30;90.69;94036.72;5071382;28;20185;-70
2022/10/28 04:27:45;;;;;;;12.20;10.97;;;;;;;8.25;90.78;94035.84;5069009;28;20188;-69
2022/10/28 04:30:11;;;;;;;12.07;11.00;;;;;;;8.27;90.93;94031.19;5069811;28;20196;-68
2022/10/28 04:32:38;;;;;;;12.57;11.60;;;;;;;8.11;92.09;94038.66;5069901;28;20216;-70
2022/10/28 04:35:04;;;;;;;12.53;11.63;;;;;;;8.16;92.98;94030.16;5069631;28;20259;-70
2022/10/28 04:37:29;;;;;;;12.37;11.43;;;;;;;8.10;92.53;94020.69;5065998;28;20197;-69
2022/10/28 04:39:54;;;;;;;12.03;11.10;;;;;;;7.99;92.54;94027.50;5068640;28;20245;-69
2022/10/28 04:42:21;;;;;;;11.50;10.70;;;;;;;7.99;92.37;94026.69;5070246;28;20708;-67
2022/10/28 04:44:46;;;;;;;11.13;10.03;;;;;;;8.11;92.10;94024.84;5069307;28;20271;-70
2022/10/28 04:47:12;;;;;;;11.00;10.13;;;;;;;8.05;91.89;94021.38;5068773;28;20190;-70
2022/10/28 04:49:37;;;;;;;11.70;10.90;;;;;;;8.15;91.53;94028.59;5076040;28;20239;-69
2022/10/28 04:52:02;;;;;;;12.60;11.40;;;;;;;8.10;91.76;94024.09;5077787;28;20189;-71
2022/10/28 04:54:28;;;;;;;12.10;11.10;;;;;;;8.14;91.47;94019.19;5071438;28;20226;-71
2022/10/28 04:56:54;;;;;;;11.50;10.73;;;;;;;8.00;91.90;94029.06;5067551;28;20257;-71
2022/10/28 04:59:19;;;;;;;10.50;9.50;;;;;;;8.03;91.98;94026.00;5075450;28;20240;-71
2022/10/28 05:01:44;;;;;;;10.97;9.87;;;;;;;8.09;91.78;94026.91;5079696;28;20241;-71
2022/10/28 05:04:10;;;;;;;10.90;10.10;;;;;;;8.09;91.71;94039.91;5071514;28;20225;-71
2022/10/28 05:06:35;;;;;;;12.10;10.87;;;;;;;8.00;92.18;94031.66;5065885;28;20203;-71
2022/10/28 05:09:00;;;;;;;11.80;9.30;;;;;;;8.09;92.04;94030.28;5077758;28;20228;-71
2022/10/28 05:11:26;;;;;;;12.03;11.17;;;;;;;8.13;91.92;94035.81;5088384;28;20267;-71
2022/10/28 05:13:53;;;;;;;15.63;10.03;;;;;;;8.12;92.11;94026.44;5088582;28;20228;-72
2022/10/28 05:16:19;;;;;;;10.87;10.07;;;;;;;8.08;91.94;94031.31;5089061;28;20188;-71
2022/10/28 05:18:45;;;;;;;10.87;10.17;;;;;;;8.14;91.93;94035.59;5079057;28;20272;-71
2022/10/28 05:21:10;;;;;;;10.27;9.17;;;;;;;8.21;91.90;94035.47;5098897;28;20197;-71
2022/10/28 05:23:36;;;;;;;10.97;9.93;;;;;;;8.23;92.00;94046.50;5067529;28;20621;-71
2022/10/28 05:26:01;;;;;;;16.97;10.17;;;;;;;8.21;92.41;94043.28;5068194;28;20194;-71
2022/10/28 05:28:26;;;;;;;10.63;9.53;;;;;;;8.25;92.18;94049.63;5067878;28;20233;-71
2022/10/28 05:30:52;;;;;;;12.77;11.97;;;;;;;8.04;92.89;94024.19;5068785;28;20204;-73
2022/10/28 05:33:17;;;;;;;17.20;15.53;;;;;;;8.39;92.02;94048.38;5068126;28;20240;-71
2022/10/28 05:35:43;;;;;;;12.07;11.00;;;;;;;8.42;92.03;94054.94;5067907;28;20245;-68
2022/10/28 05:38:08;;;;;;;12.50;11.30;;;;;;;8.41;92.09;94042.94;5069000;28;20243;-69
2022/10/28 05:40:33;;;;;;;11.47;10.53;;;;;;;8.36;93.06;94055.88;5068483;28;20247;-68
2022/10/28 05:43:00;;;;;;;17.67;10.63;;;;;;;8.47;93.08;94052.44;5067688;28;20240;-70
2022/10/28 05:45:26;;;;;;;15.37;14.00;;;;;;;8.50;92.41;94059.78;5065030;28;20185;-68
2022/10/28 05:47:51;;;;;;;13.50;11.27;;;;;;;8.35;93.24;94039.44;5065403;28;20201;-67
2022/10/28 05:50:19;;;;;;;11.43;10.33;;;;;;;8.70;92.65;94073.22;5075027;28;20201;-68
2022/10/28 05:52:49;;;;;;;11.60;10.57;;;;;;;8.81;91.60;94064.56;5076696;28;20181;-68
2022/10/28 05:55:18;;;;;;;11.30;10.30;;;;;;;8.82;91.34;94056.53;5067067;28;20261;-70
2022/10/28 05:57:44;;;;;;;12.63;10.37;;;;;;;8.96;91.35;94067.44;5067350;28;20225;-71
2022/10/28 06:00:10;;;;;;;16.30;10.77;;;;;;;8.87;91.62;94048.00;5074631;28;20220;-69
2022/10/28 06:02:35;;;;;;;12.53;9.83;;;;;;;8.78;90.71;94012.97;5076114;28;20210;-72
2022/10/28 06:05:00;;;;;;;11.20;10.40;;;;;;;9.12;90.66;94064.88;5068357;28;20213;-72
2022/10/28 06:07:28;;;;;;;12.33;11.30;;;;;;;9.43;88.63;94074.81;5067941;28;20796;-69
2022/10/28 06:09:53;;;;;;;13.70;12.20;;;;;;;9.37;88.06;94080.19;5075337;28;20240;-71
2022/10/28 06:12:18;;;;;;;14.90;13.47;;;;;;;9.26;88.07;94068.00;5074078;28;20192;-70
2022/10/28 06:14:44;;;;;;;17.07;14.17;;;;;;;9.30;88.52;94089.94;5069534;28;20248;-67
2022/10/28 06:17:09;;;;;;;21.03;15.30;;;;;;;9.17;89.34;94087.63;5067916;28;20316;-68
2022/10/28 06:19:34;;;;;;;16.03;14.50;;;;;;;9.13;89.83;94092.53;5084803;28;20248;-68
2022/10/28 06:22:00;;;;;;;16.73;14.37;;;;;;;9.05;89.85;94094.69;5088809;28;20198;-68
2022/10/28 06:24:25;;;;;;;15.93;14.10;;;;;;;9.01;90.51;94102.19;5072804;28;20228;-68
2022/10/28 06:26:50;;;;;;;15.73;14.13;;;;;;;8.96;90.88;94093.50;5069833;28;20209;-70
2022/10/28 06:29:16;;;;;;;26.90;13.93;;;;;;;9.12;90.05;94103.19;5065998;28;20233;-69
2022/10/28 06:31:41;;;;;;;16.13;13.53;;;;;;;9.14;89.82;94107.13;5069701;28;20193;-67
2022/10/28 06:34:10;;;;;;;17.00;15.20;;;;;;;9.18;89.78;94102.25;5071621;28;20228;-67
2022/10/28 06:36:36;;;;;;;21.83;15.07;;;;;;;9.21;90.26;94104.38;5070614;28;20254;-68
2022/10/28 06:39:02;;;;;;;17.20;13.27;;;;;;;9.21;90.67;94101.78;5070955;28;20245;-69
2022/10/28 06:41:27;;;;;;;15.93;14.17;;;;;;;9.51;89.41;94107.50;5071669;28;20218;-68
2022/10/28 06:43:52;;;;;;;17.67;13.77;;;;;;;9.45;89.13;94085.00;5080861;28;20215;-69
2022/10/28 06:46:18;;;;;;;16.53;14.50;;;;;;;9.53;89.15;94108.88;5091975;28;20196;-69
2022/10/28 06:48:43;;;;;;;15.30;13.97;;;;;;;9.65;89.26;94106.19;5090875;28;20254;-68
2022/10/28 06:51:09;;;;;;;16.23;14.60;;;;;;;9.76;88.30;94107.94;5090809;28;20200;-68
2022/10/28 06:53:34;;;;;;;16.23;13.70;;;;;;;9.90;87.24;94098.78;5085863;28;20233;-69
2022/10/28 06:55:59;;;;;;;21.17;13.23;;;;;;;9.66;87.76;94100.72;5083903;28;20188;-69
2022/10/28 06:58:25;;;;;;;15.97;14.53;;;;;;;9.95;88.17;94098.06;5073741;28;20245;-69
2022/10/28 07:00:51;;;;;;;14.57;13.13;;;;;;;10.07;87.48;94099.59;5071549;28;20680;-69
2022/10/28 07:03:17;;;;;;;16.13;14.67;;;;;;;10.09;87.09;94097.53;5072380;28;20267;-67
2022/10/28 07:05:44;;;;;;;20.23;14.60;;;;;;;10.40;85.81;94085.69;5071483;28;20245;-69
2022/10/28 07:08:10;;;;;;;15.83;13.97;;;;;;;10.53;85.17;94096.59;5070693;28;20255;-69
2022/10/28 07:10:35;;;;;;;19.83;14.63;;;;;;;10.50;84.97;94091.06;5071342;28;20249;-69
2022/10/28 07:13:00;;;;;;;17.03;13.97;;;;;;;10.37;86.57;94097.41;5071818;28;20305;-69
2022/10/28 07:15:26;;;;;;;18.90;15.70;;;;;;;10.55;85.79;94097.13;5078392;28;20189;-70
2022/10/28 07:17:52;;;;;;;17.90;16.00;;;;;;;10.51;86.13;94103.88;5081241;28;20185;-69
2022/10/28 07:20:18;;;;;;;19.63;15.37;;;;;;;10.92;82.99;94113.00;5069219;28;20222;-69
2022/10/28 07:22:43;;;;;;;17.50;14.83;;;;;;;10.85;84.59;94109.78;5070448;28;20201;-69
2022/10/28 07:25:08;;;;;;;15.70;14.20;;;;;;;10.96;83.66;94111.47;5090263;28;20200;-70
2022/10/28 07:27:34;;;;;;;18.50;13.93;;;;;;;10.94;82.32;94098.66;5090574;28;20252;-69
2022/10/28 07:29:59;;;;;;;18.63;14.97;;;;;;;11.18;81.22;94110.44;5077045;28;20221;-70
2022/10/28 07:32:24;;;;;;;16.93;15.27;;;;;;;11.33;80.24;94110.59;5078698;28;20197;-69
2022/10/28 07:34:50;;;;;;;20.73;16.13;;;;;;;11.13;81.58;94091.28;5067271;28;20240;-68
2022/10/28 07:37:15;;;;;;;17.23;15.33;;;;;;;11.22;81.90;94114.13;5065985;28;20199;-69
2022/10/28 07:39:41;;;;;;;18.40;16.03;;;;;;;11.45;80.03;94109.66;5070853;28;20272;-69
2022/10/28 07:42:06;;;;;;;22.67;15.30;;;;;;;11.50;80.06;94107.09;5069400;28;20267;-70
2022/10/28 07:44:31;;;;;;;20.00;16.60;;;;;;;11.29;80.18;94106.91;5066998;28;20221;-69
2022/10/28 07:46:57;;;;;;;20.13;14.43;;;;;;;11.49;79.75;94110.78;5070334;28;20193;-69
2022/10/28 07:49:22;;;;;;;17.13;15.37;;;;;;;11.73;78.23;94099.78;5070105;28;20225;-69
2022/10/28 07:51:49;;;;;;;22.53;16.00;;;;;;;11.73;78.75;94112.06;5070796;28;20216;-68
2022/10/28 07:54:15;;;;;;;22.77;15.93;;;;;;;11.82;78.17;94105.31;5069093;28;20223;-69
2022/10/28 07:56:40;;;;;;;18.87;15.03;;;;;;;11.89;77.73;94117.16;5071157;28;20193;-69
2022/10/28 07:59:06;;;;;;;19.13;16.10;;;;;;;11.93;78.57;94114.84;5070592;28;20230;-70
2022/10/28 08:01:31;;;;;;;23.57;15.73;;;;;;;11.77;79.17;94105.28;5070961;28;20189;-69
2022/10/28 08:03:56;;;;;;;25.20;16.87;;;;;;;11.98;76.73;94104.41;5070249;28;20235;-71
2022/10/28 08:06:22;;;;;;;25.13;16.87;;;;;;;12.06;76.75;94104.72;5071235;28;20282;-70
2022/10/28 08:08:52;;;;;;;24.27;15.70;;;;;;;11.98;77.85;94107.03;5070874;28;20223;-71
2022/10/28 08:11:22;;;;;;;20.60;15.20;;;;;;;12.09;76.49;94117.34;5069711;28;20185;-70
2022/10/28 08:13:48;;;;;;;15.67;13.20;;;;;;;12.02;76.47;94111.53;5074248;28;20224;-69
2022/10/28 08:16:13;;;;;;;18.83;14.27;;;;;;;12.28;74.96;94112.50;5079932;28;20202;-69
2022/10/28 08:18:39;;;;;;;14.97;13.43;;;;;;;12.50;74.15;94113.16;5076475;28;20224;-70
2022/10/28 08:21:07;;;;;;;17.97;13.30;;;;;;;12.40;75.26;94113.09;5070060;28;20189;-70
2022/10/28 08:23:33;;;;;;;14.27;12.63;;;;;;;12.65;73.23;94121.88;5069131;28;20273;-69
2022/10/28 08:25:58;;;;;;;19.17;13.90;;;;;;;12.75;73.02;94115.91;5069315;28;20186;-71
2022/10/28 08:28:24;;;;;;;16.07;12.97;;;;;;;12.86;72.77;94122.78;5070220;28;20249;-70
2022/10/28 08:30:49;;;;;;;14.87;13.47;;;;;;;12.54;74.82;94125.53;5067389;28;20165;-71
2022/10/28 08:33:15;;;;;;;17.43;12.93;;;;;;;12.66;74.39;94117.44;5070403;28;20921;-71
2022/10/28 08:35:41;;;;;;;15.17;13.57;;;;;;;12.66;74.06;94127.94;5069591;28;20204;-70
2022/10/28 08:38:07;;;;;;;23.17;14.47;;;;;;;12.72;75.93;94121.66;5071064;28;20225;-71
2022/10/28 08:40:58;;;;;;;15.90;14.13;;;;;;;12.84;74.36;94133.53;5069960;28;20278;-71
2022/10/28 08:43:42;;;;;;;55.53;23.77;;;;;;;13.31;71.20;94135.34;5069466;28;20308;-70
2022/10/28 08:46:16;;;;;;;20.47;14.70;;;;;;;13.21;71.48;94125.59;5068709;28;20278;-70
2022/10/28 08:48:42;;;;;;;23.97;14.60;;;;;;;13.29;70.03;94132.94;5067612;28;20229;-71
2022/10/28 08:51:15;;;;;;;15.50;13.87;;;;;;;13.25;72.88;94126.66;5069253;28;20192;-71
2022/10/28 08:53:47;;;;;;;17.10;12.60;;;;;;;13.46;70.98;94128.31;5068364;28;20237;-71
2022/10/28 08:56:24;;;;;;;14.27;12.97;;;;;;;13.63;69.72;94126.25;5070125;28;20205;-70
2022/10/28 08:58:53;;;;;;;14.23;12.13;;;;;;;13.81;68.91;94124.94;5068248;28;20225;-69
2022/10/28 09:01:31;;;;;;;12.53;11.33;;;;;;;14.03;67.78;94121.03;5070032;28;20196;-69
2022/10/28 09:04:00;;;;;;;16.43;11.70;;;;;;;13.95;68.95;94124.19;5069429;28;20220;-70
2022/10/28 09:06:25;;;;;;;14.50;12.97;;;;;;;14.24;66.03;94124.50;5071965;28;20189;-70
2022/10/28 09:08:52;;;;;;;13.27;12.07;;;;;;;14.32;66.26;94108.97;5072776;28;20259;-70
2022/10/28 09:11:36;;;;;;;15.27;11.13;;;;;;;14.26;66.75;94122.38;5068618;28;20193;-70
2022/10/28 09:14:25;;;;;;;14.07;12.27;;;;;;;14.43;65.73;94115.78;5067887;28;20221;-70
2022/10/28 09:17:09;;;;;;;12.60;11.30;;;;;;;14.67;64.90;94107.31;5069153;28;20193;-71
2022/10/28 09:19:43;;;;;;;12.77;11.57;;;;;;;14.64;65.43;94102.59;5067710;28;20229;-70
2022/10/28 09:22:28;;;;;;;12.77;11.47;;;;;;;14.74;64.17;94100.72;5069088;28;20193;-69
2022/10/28 09:25:05;;;;;;;14.70;12.47;;;;;;;14.90;63.68;94104.91;5066654;28;20260;-69
2022/10/28 09:27:58;;;;;;;14.77;13.00;;;;;;;15.04;63.64;94102.47;5068140;28;20181;-69
2022/10/28 09:30:39;;;;;;;13.67;12.20;;;;;;;14.87;64.33;94094.13;5067669;28;20245;-69
2022/10/28 09:33:25;;;;;;;13.03;11.70;;;;;;;15.06;63.07;94076.69;5067738;28;20285;-69
2022/10/28 09:35:51;;;;;;;14.60;13.10;;;;;;;15.33;62.47;94090.28;5066699;28;20197;-71
2022/10/28 09:38:24;;;;;;;14.40;11.67;;;;;;;15.34;62.28;94082.09;5066567;28;20221;-70
2022/10/28 09:41:14;;;;;;;13.30;11.60;;;;;;;15.26;62.45;94085.28;5067584;28;20204;-71
2022/10/28 09:43:47;;;;;;;14.23;12.30;;;;;;;15.31;61.73;94066.84;5064194;28;20229;-67
2022/10/28 09:46:15;;;;;;;13.00;11.73;;;;;;;15.37;62.35;94070.22;5069068;28;20198;-67
2022/10/28 09:48:46;;;;;;;12.80;11.57;;;;;;;15.28;61.69;94071.88;5067321;28;20213;-68
2022/10/28 09:51:33;;;;;;;14.30;12.73;;;;;;;15.41;61.55;94069.44;5067751;28;20229;-68
2022/10/28 09:54:00;;;;;;;13.07;11.77;;;;;;;15.31;61.86;94045.81;5068093;28;20235;-68
2022/10/28 09:56:27;;;;;;;13.20;11.90;;;;;;;15.53;60.47;94066.50;5067520;28;20201;-68
2022/10/28 09:58:56;;;;;;;12.30;11.30;;;;;;;15.67;59.58;94054.28;5072996;28;20229;-68
2022/10/28 10:01:22;;;;;;;12.77;11.23;;;;;;;15.85;58.92;94061.53;5076526;28;20204;-67
2022/10/28 10:03:49;;;;;;;11.37;10.37;;;;;;;15.92;58.30;94062.00;5072249;28;20244;-68
2022/10/28 10:06:28;;;;;;;10.20;9.43;;;;;;;15.73;57.94;94048.72;5066831;28;20280;-67
2022/10/28 10:08:57;;;;;;;10.43;9.43;;;;;;;15.50;58.32;94062.53;5072311;28;20288;-68
2022/10/28 10:11:28;;;;;;;13.13;11.87;;;;;;;15.72;60.99;94059.53;5074906;28;20189;-67
2022/10/28 10:13:57;;;;;;;10.97;9.90;;;;;;;16.15;57.33;94063.13;5072151;28;20251;-68
2022/10/28 10:16:43;;;;;;;10.63;9.73;;;;;;;15.99;57.44;94060.63;5067430;28;20219;-67
2022/10/28 10:19:10;;;;;;;10.27;9.57;;;;;;;15.93;57.69;94053.03;5067617;28;21044;-68
2022/10/28 10:21:39;;;;;;;10.67;9.83;;;;;;;15.90;58.41;94050.94;5068921;28;20178;-68
2022/10/28 10:24:28;;;;;;;10.17;9.40;;;;;;;16.03;58.24;94042.44;5067133;28;20503;-70
2022/10/28 10:26:55;;;;;;;12.30;9.93;;;;;;;16.21;56.92;94038.31;5068497;28;20178;-67
2022/10/28 10:29:21;;;;;;;10.87;9.53;;;;;;;16.52;56.11;94045.66;5068383;28;20255;-68
2022/10/28 10:31:47;;;;;;;11.40;9.93;;;;;;;16.27;56.68;94043.25;5067744;28;20405;-68
2022/10/28 10:34:25;;;;;;;10.80;9.80;;;;;;;16.57;55.87;94036.91;5081065;28;20217;-68
2022/10/28 10:36:54;;;;;;;9.80;9.17;;;;;;;16.28;56.34;94031.63;5089202;28;20173;-68
2022/10/28 10:39:25;;;;;;;9.93;9.13;;;;;;;16.49;56.66;94040.97;5088012;28;20261;-68
2022/10/28 10:41:51;;;;;;;9.73;9.00;;;;;;;16.65;55.15;94037.09;5086991;28;20195;-68
2022/10/28 10:44:20;;;;;;;10.27;9.27;;;;;;;16.75;54.59;94034.34;5088294;28;20291;-68
2022/10/28 10:47:03;;;;;;;8.83;8.23;;;;;;;16.72;54.75;94028.84;5089020;28;20968;-67
2022/10/28 10:49:29;;;;;;;10.30;9.37;;;;;;;16.96;55.36;94032.25;5082520;28;20232;-68
2022/10/28 10:52:00;;;;;;;10.33;9.53;;;;;;;16.63;56.06;94023.41;5079548;28;20190;-68
2022/10/28 10:54:28;;;;;;;10.17;9.47;;;;;;;16.28;55.51;94015.81;5070592;28;20252;-68
2022/10/28 10:57:09;;;;;;;10.97;10.30;;;;;;;16.75;55.27;94023.00;5068916;28;20190;-68
2022/10/28 10:59:36;;;;;;;10.90;9.60;;;;;;;16.94;55.06;94021.97;5084030;28;20243;-68
2022/10/28 11:02:16;;;;;;;9.73;9.13;;;;;;;17.17;53.88;94029.06;5087933;28;20192;-68
2022/10/28 11:04:52;;;;;;;11.10;10.27;;;;;;;16.93;53.66;94024.91;5077580;28;20255;-68
2022/10/28 11:07:17;;;;;;;9.63;9.07;;;;;;;16.85;53.67;94033.44;5078938;28;20200;-68
2022/10/28 11:09:47;;;;;;;10.93;10.03;;;;;;;16.40;55.32;94000.44;5068780;28;20226;-68
2022/10/28 11:12:26;;;;;;;10.37;9.77;;;;;;;16.58;55.31;94012.91;5068125;28;20189;-68
2022/10/28 11:14:55;;;;;;;9.53;8.93;;;;;;;16.55;53.59;93966.00;5085830;28;20220;-68
2022/10/28 11:17:26;;;;;;;9.77;8.77;;;;;;;16.98;51.89;94019.56;5089013;28;20257;-68
2022/10/28 11:19:55;;;;;;;9.83;9.23;;;;;;;16.75;52.96;94000.06;5091881;28;20236;-68
2022/10/28 11:22:27;;;;;;;9.70;9.17;;;;;;;16.60;53.72;94010.00;5091332;28;20185;-68
2022/10/28 11:25:18;;;;;;;10.80;9.90;;;;;;;16.79;53.50;94005.56;5089843;28;20272;-68
2022/10/28 11:27:52;;;;;;;11.57;10.87;;;;;;;17.19;52.08;94018.22;5089662;28;20257;-68
2022/10/28 11:30:24;;;;;;;10.03;9.43;;;;;;;16.98;51.47;94016.94;5080137;28;20185;-68
2022/10/28 11:33:10;;;;;;;10.63;9.30;;;;;;;16.63;53.25;93991.75;5078598;28;20185;-68
2022/10/28 11:36:02;;;;;;;9.07;8.53;;;;;;;17.15;49.48;94007.44;5071461;28;20200;-67
2022/10/28 11:38:35;;;;;;;9.90;9.33;;;;;;;17.02;49.21;93994.97;5077564;28;20315;-68